createdAt,value
2023-02-11T00:01:24.471Z,96757.25
2023-02-11T00:03:52.246Z,96756.50
2023-02-11T00:06:19.085Z,96757.50
2023-02-11T00:08:46.284Z,96760.78
2023-02-11T00:11:15.936Z,96756.56
2023-02-11T00:13:44.300Z,96750.72
2023-02-11T00:16:15.145Z,96760.78
2023-02-11T00:18:42.052Z,96759.06
2023-02-11T00:21:18.359Z,96759.13
2023-02-11T00:23:46.152Z,96769.25
2023-02-11T00:26:20.476Z,96761.72
2023-02-11T00:28:48.774Z,96753.38
2023-02-11T00:31:17.363Z,96750.91
2023-02-11T00:33:44.900Z,96740.06
2023-02-11T00:36:23.909Z,96752.56
2023-02-11T00:38:52.611Z,96755.94
2023-02-11T00:41:20.213Z,96755.16
2023-02-11T00:43:47.781Z,96752.72
2023-02-11T00:46:15.861Z,96753.59
2023-02-11T00:48:43.016Z,96754.50
2023-02-11T00:51:10.419Z,96746.97
2023-02-11T00:53:37.384Z,96756.28
2023-02-11T00:56:04.774Z,96736.09
2023-02-11T00:58:31.695Z,96740.31
2023-02-11T01:00:58.584Z,96745.41
2023-02-11T01:03:25.782Z,96745.41
2023-02-11T01:05:53.137Z,96753.00
2023-02-11T01:08:20.109Z,96732.94
2023-02-11T01:11:01.331Z,96744.59
2023-02-11T01:13:29.342Z,96737.06
2023-02-11T01:15:56.766Z,96742.97
2023-02-11T01:18:24.760Z,96748.91
2023-02-11T01:20:52.644Z,96743.88
2023-02-11T01:23:19.910Z,96738.91
2023-02-11T01:25:46.797Z,96739.09
2023-02-11T01:28:23.239Z,96738.22
2023-02-11T01:30:50.557Z,96742.41
2023-02-11T01:33:17.908Z,96727.34
2023-02-11T02:30:08.410Z,96724.72
2023-02-11T02:33:16.752Z,96726.38
2023-02-11T02:36:07.470Z,96726.38
2023-02-11T02:38:53.356Z,96721.31
2023-02-11T02:41:25.205Z,96728.97
2023-02-11T02:43:52.945Z,96723.06
2023-02-11T04:51:03.170Z,96706.56
2023-02-11T04:53:29.964Z,96708.19
2023-02-11T04:55:56.836Z,96704.75
2023-02-11T04:58:24.516Z,96699.69
2023-02-11T05:00:51.512Z,96706.28
2023-02-11T05:03:18.729Z,96703.72
2023-02-11T06:27:10.184Z,96711.72
2023-02-11T06:29:37.071Z,96713.34
2023-02-11T06:32:04.553Z,96715.03
2023-02-11T06:34:31.488Z,96704.16
2023-02-11T06:36:58.433Z,96728.28
2023-02-11T06:39:25.380Z,96728.22
2023-02-11T06:41:52.281Z,96724.81
2023-02-11T06:44:19.210Z,96731.41
2023-02-11T07:16:52.929Z,96712.13
2023-02-11T07:19:20.149Z,96704.47
2023-02-11T07:21:48.883Z,96716.78
2023-02-11T07:24:15.867Z,96717.47
2023-02-11T07:26:42.668Z,96712.81
2023-02-11T07:29:09.568Z,96704.13
2023-02-11T07:31:36.563Z,96697.13
2023-02-11T07:34:03.659Z,96698.50
2023-02-11T07:36:32.211Z,96693.13
2023-02-11T07:39:00.510Z,96689.41
2023-02-11T07:41:27.861Z,96694.94
2023-02-11T07:43:55.404Z,96688.97
2023-02-11T07:46:27.574Z,96679.38
2023-02-11T07:48:55.439Z,96685.09
2023-02-11T07:51:25.379Z,96678.13
2023-02-11T07:53:53.610Z,96681.34
2023-02-11T07:56:21.374Z,96684.59
2023-02-11T07:58:49.039Z,96681.78
2023-02-11T08:01:25.559Z,96683.78
2023-02-11T08:03:53.106Z,96674.28
2023-02-11T08:06:21.739Z,96674.31
2023-02-11T08:08:48.785Z,96677.41
2023-02-11T08:11:18.276Z,96678.88
2023-02-11T08:13:45.580Z,96680.25
2023-02-11T08:16:41.701Z,96665.28
2023-02-11T08:19:13.154Z,96681.53
2023-02-11T08:21:40.772Z,96672.38
2023-02-11T08:24:08.011Z,96669.16
2023-02-11T08:26:35.249Z,96659.88
2023-02-11T08:29:13.300Z,96660.75
2023-02-11T08:31:42.709Z,96653.09
2023-02-11T08:34:11.640Z,96642.38
2023-02-11T08:36:39.651Z,96661.25
2023-02-11T08:39:19.239Z,96660.06
2023-02-11T08:41:51.994Z,96666.34
2023-02-11T08:44:20.072Z,96662.44
2023-02-11T08:46:47.377Z,96656.69
2023-02-11T08:49:15.280Z,96653.03
2023-02-11T08:51:42.180Z,96650.44
2023-02-11T08:54:10.199Z,96656.72
2023-02-11T08:56:38.834Z,96654.28
2023-02-11T08:59:07.243Z,96655.44
2023-02-11T09:01:34.567Z,96658.72
2023-02-11T09:04:01.723Z,96653.56
2023-02-11T09:06:29.427Z,96649.94
2023-02-11T09:08:57.994Z,96643.34
2023-02-11T09:11:32.069Z,96637.25
2023-02-11T09:13:59.204Z,96647.09
2023-02-11T09:16:28.855Z,96646.56
2023-02-11T09:19:00.491Z,96644.66
2023-02-11T09:21:28.144Z,96643.00
2023-02-11T09:23:55.365Z,96647.47
2023-02-11T09:26:25.114Z,96641.22
2023-02-11T09:28:52.157Z,96627.59
2023-02-11T09:31:22.302Z,96643.44
2023-02-11T09:33:52.206Z,96644.56
2023-02-11T09:36:24.047Z,96629.03
2023-02-11T09:38:51.948Z,96632.91
2023-02-11T09:41:24.861Z,96627.16
2023-02-11T09:44:05.095Z,96618.94
2023-02-11T09:46:41.970Z,96618.47
2023-02-11T09:49:20.020Z,96613.00
2023-02-11T09:52:01.837Z,96604.06
2023-02-11T09:54:36.000Z,96601.50
2023-02-11T09:57:03.064Z,96599.38
2023-02-11T09:59:30.646Z,96585.50
2023-02-11T10:02:02.937Z,96594.28
2023-02-11T10:04:45.272Z,96576.22
2023-02-11T10:08:10.055Z,96572.53
2023-02-11T10:10:46.014Z,96566.28
2023-02-11T10:13:45.886Z,96567.34
2023-02-11T10:16:45.545Z,96552.59
2023-02-11T10:19:33.820Z,96542.28
2023-02-11T10:22:12.430Z,96533.63
2023-02-11T10:24:43.566Z,96522.78
2023-02-11T10:27:20.672Z,96518.53
2023-02-11T10:29:57.100Z,96499.50
2023-02-11T10:32:32.988Z,96501.31
2023-02-11T10:35:10.627Z,96506.50
2023-02-11T10:37:37.539Z,96483.06
2023-02-11T10:40:06.947Z,96482.63
2023-02-11T10:42:35.508Z,96473.56
2023-02-11T10:45:07.525Z,96477.84
2023-02-11T10:47:38.058Z,96473.88
2023-02-11T10:50:29.529Z,96467.88
2023-02-11T10:53:12.758Z,96458.47
2023-02-11T10:55:49.508Z,96450.22
2023-02-11T10:58:29.364Z,96437.34
2023-02-11T11:00:57.645Z,96445.25
2023-02-11T11:03:27.289Z,96446.59
2023-02-11T11:06:02.877Z,96429.38
2023-02-11T11:08:46.045Z,96440.28
2023-02-11T11:11:18.885Z,96430.50
2023-02-11T11:14:00.823Z,96433.91
2023-02-11T11:16:35.761Z,96423.34
2023-02-11T11:19:08.611Z,96425.75
2023-02-11T11:22:07.590Z,96426.47
2023-02-11T11:24:44.507Z,96415.50
2023-02-11T11:27:19.741Z,96413.53
2023-02-11T11:29:50.024Z,96417.94
2023-02-11T11:32:22.545Z,96420.13
2023-02-11T11:34:55.793Z,96412.69
2023-02-11T11:37:39.053Z,96404.34
2023-02-11T11:40:33.116Z,96414.47
2023-02-11T11:43:25.378Z,96402.00
2023-02-11T11:45:57.989Z,96406.28
2023-02-11T11:48:51.989Z,96401.53
2023-02-11T11:51:19.444Z,96393.56
2023-02-11T11:53:51.428Z,96393.63
2023-02-11T11:56:27.408Z,96381.66
2023-02-11T11:58:54.734Z,96389.81
2023-02-11T12:01:39.493Z,96377.16
2023-02-11T12:04:43.057Z,96366.31
2023-02-11T12:07:32.773Z,96356.41
2023-02-11T12:10:14.896Z,96356.44
2023-02-11T12:12:53.788Z,96349.13
2023-02-11T12:15:44.399Z,96353.34
2023-02-11T12:18:33.055Z,96354.03
2023-02-11T12:21:18.597Z,96341.25
2023-02-11T12:24:17.435Z,96332.25
2023-02-11T12:26:50.074Z,96332.25
2023-02-11T12:29:38.405Z,96329.47
2023-02-11T12:32:58.355Z,96324.63
2023-02-11T12:35:46.984Z,96320.66
2023-02-11T12:38:38.194Z,96315.41
2023-02-11T12:41:44.732Z,96320.31
2023-02-11T12:44:34.351Z,96306.13
2023-02-11T12:47:35.531Z,96310.06
2023-02-11T12:50:05.494Z,96292.66
2023-02-11T12:52:55.812Z,96302.44
2023-02-11T12:55:29.428Z,96297.28
2023-02-11T12:58:00.941Z,96284.88
2023-02-11T13:00:40.553Z,96287.13
2023-02-11T13:03:18.471Z,96293.38
2023-02-11T13:05:51.531Z,96282.00
2023-02-11T13:08:42.098Z,96281.91
2023-02-11T13:11:15.354Z,96287.16
2023-02-11T13:13:45.247Z,96283.09
2023-02-11T13:16:37.356Z,96280.25
2023-02-11T13:19:13.311Z,96277.34
2023-02-11T13:21:40.150Z,96255.88
2023-02-11T13:24:15.600Z,96270.16
2023-02-11T13:27:00.478Z,96266.66
2023-02-11T13:29:36.676Z,96270.56
2023-02-11T13:32:13.398Z,96270.16
2023-02-11T13:34:59.086Z,96261.50
2023-02-11T13:37:34.618Z,96266.72
2023-02-11T13:40:04.039Z,96266.63
2023-02-11T13:42:34.342Z,96257.25
2023-02-11T13:45:01.595Z,96251.59
2023-02-11T13:47:37.713Z,96249.13
2023-02-11T13:50:08.391Z,96243.06
2023-02-11T13:52:38.952Z,96237.97
2023-02-11T13:55:14.539Z,96251.56
2023-02-11T13:57:42.040Z,96246.44
2023-02-11T14:00:45.923Z,96234.00
2023-02-11T14:03:31.164Z,96240.88
2023-02-11T14:06:29.057Z,96246.41
2023-02-11T14:09:14.105Z,96238.41
2023-02-11T14:11:43.460Z,96243.09
2023-02-11T14:14:29.176Z,96239.44
2023-02-11T14:17:02.002Z,96239.94
2023-02-11T14:19:37.619Z,96238.63
2023-02-11T14:22:13.664Z,96225.72
2023-02-11T14:24:49.274Z,96230.06
2023-02-11T14:27:35.359Z,96225.13
2023-02-11T14:30:26.373Z,96227.19
2023-02-11T14:33:20.620Z,96226.22
2023-02-11T14:36:09.037Z,96214.69
2023-02-11T14:38:38.637Z,96230.97
2023-02-11T14:41:11.083Z,96231.19
2023-02-11T14:43:47.066Z,96225.91
2023-02-11T14:46:17.114Z,96226.75
2023-02-11T14:48:48.946Z,96236.88
2023-02-11T14:51:27.256Z,96228.13
2023-02-11T14:54:00.847Z,96228.25
2023-02-11T14:56:32.090Z,96222.84
2023-02-11T14:58:58.920Z,96214.22
2023-02-11T15:01:37.958Z,96201.28
2023-02-11T15:04:06.964Z,96228.91
2023-02-11T15:06:37.978Z,96230.69
2023-02-11T15:09:15.050Z,96223.06
2023-02-11T15:11:44.913Z,96226.19
2023-02-11T15:14:22.798Z,96230.22
2023-02-11T15:16:53.585Z,96207.19
2023-02-11T15:19:34.285Z,96225.59
2023-02-11T15:22:04.282Z,96217.28
2023-02-11T15:24:33.631Z,96208.50
2023-02-11T15:27:08.426Z,96210.13
2023-02-11T15:29:43.656Z,96202.25
2023-02-11T15:32:10.568Z,96212.31
2023-02-11T15:34:37.699Z,96203.69
2023-02-11T15:37:13.159Z,96201.94
2023-02-11T15:39:42.343Z,96212.25
2023-02-11T15:42:19.974Z,96208.38
2023-02-11T15:44:54.262Z,96205.44
2023-02-11T15:47:23.644Z,96206.22
2023-02-11T15:49:51.646Z,96220.72
2023-02-11T15:52:25.785Z,96208.63
2023-02-11T15:54:54.203Z,96199.09
2023-02-11T15:57:22.745Z,96203.72
2023-02-11T15:59:53.152Z,96220.19
2023-02-11T16:02:31.102Z,96218.47
2023-02-11T16:05:01.632Z,96223.34
2023-02-11T16:07:45.121Z,96216.22
2023-02-11T16:10:26.516Z,96217.88
2023-02-11T16:13:06.629Z,96218.94
2023-02-11T16:15:39.887Z,96220.19
2023-02-11T16:18:38.657Z,96220.34
2023-02-11T16:21:07.969Z,96217.44
2023-02-11T16:23:38.141Z,96227.97
2023-02-11T16:26:10.910Z,96219.88
2023-02-11T16:28:38.486Z,96229.50
2023-02-11T16:31:06.497Z,96211.66
2023-02-11T16:33:33.577Z,96223.25
2023-02-11T16:36:02.311Z,96211.84
2023-02-11T16:38:30.585Z,96227.75
2023-02-11T16:40:57.502Z,96223.13
2023-02-11T16:43:24.418Z,96231.97
2023-02-11T16:45:51.478Z,96229.63
2023-02-11T16:48:20.357Z,96206.00
2023-02-11T16:50:52.862Z,96232.56
2023-02-11T16:53:24.199Z,96230.16
2023-02-11T16:55:52.956Z,96229.63
2023-02-11T16:58:19.946Z,96212.91
2023-02-11T17:00:47.975Z,96227.22
2023-02-11T17:03:23.127Z,96234.78
2023-02-11T17:05:55.658Z,96235.69
2023-02-11T17:08:23.416Z,96235.94
2023-02-11T17:10:50.909Z,96227.13
2023-02-11T17:13:18.023Z,96229.09
2023-02-11T17:15:44.930Z,96225.16
2023-02-11T17:18:14.977Z,96219.75
2023-02-11T17:20:42.016Z,96221.56
2023-02-11T17:23:09.288Z,96227.81
2023-02-11T17:25:38.881Z,96223.75
2023-02-11T17:28:06.313Z,96227.19
2023-02-11T17:30:33.379Z,96236.69
2023-02-11T17:33:00.375Z,96220.28
2023-02-11T17:35:27.574Z,96226.38
2023-02-11T17:37:54.746Z,96231.34
2023-02-11T17:40:22.259Z,96223.16
2023-02-11T17:42:50.300Z,96230.88
2023-02-11T17:45:17.298Z,96233.34
2023-02-11T17:47:44.215Z,96239.25
2023-02-11T17:50:11.422Z,96247.53
2023-02-11T17:52:38.411Z,96245.88
2023-02-11T17:55:06.497Z,96247.66
2023-02-11T17:57:34.541Z,96248.41
2023-02-11T18:00:01.596Z,96247.13
2023-02-11T18:02:28.421Z,96243.47
2023-02-11T18:04:57.703Z,96251.72
2023-02-11T18:07:25.966Z,96244.00
2023-02-11T18:09:53.067Z,96255.66
2023-02-11T18:12:26.386Z,96260.19
2023-02-11T18:14:56.851Z,96250.47
2023-02-11T18:17:24.848Z,96255.44
2023-02-11T18:19:55.946Z,96258.88
2023-02-11T18:22:23.289Z,96255.56
2023-02-11T18:24:54.157Z,96247.78
2023-02-11T18:27:23.509Z,96236.09
2023-02-11T18:29:50.756Z,96246.88
2023-02-11T18:32:17.588Z,96244.13
2023-02-11T18:34:44.475Z,96229.03
2023-02-11T18:37:13.473Z,96227.69
2023-02-11T18:39:40.753Z,96231.94
2023-02-11T18:42:07.704Z,96228.72
2023-02-11T18:44:34.705Z,96222.78
2023-02-11T18:47:01.556Z,96221.22
2023-02-11T18:49:28.579Z,96224.06
2023-02-11T18:51:55.493Z,96219.25
2023-02-11T18:54:23.771Z,96212.00
2023-02-11T18:56:50.673Z,96220.41
2023-02-11T18:59:17.574Z,96214.56
2023-02-11T19:01:47.075Z,96222.63
2023-02-11T19:04:19.064Z,96223.66
2023-02-11T19:06:49.677Z,96216.97
2023-02-11T19:09:19.620Z,96224.59
2023-02-11T19:11:54.369Z,96217.88
2023-02-11T19:14:26.812Z,96218.56
2023-02-11T19:16:57.129Z,96209.47
2023-02-11T19:19:26.134Z,96219.50
2023-02-11T19:21:53.107Z,96219.50
2023-02-11T19:24:20.454Z,96210.28
2023-02-11T19:26:48.510Z,96212.06
2023-02-11T19:29:16.021Z,96199.34
2023-02-11T19:31:45.418Z,96190.09
2023-02-11T19:34:14.228Z,96191.44
2023-02-11T19:36:42.023Z,96193.09
2023-02-11T19:39:09.898Z,96188.91
2023-02-11T19:41:37.195Z,96188.97
2023-02-11T19:44:05.337Z,96192.97
2023-02-11T19:46:35.111Z,96188.50
2023-02-11T19:49:03.295Z,96183.34
2023-02-11T19:51:31.021Z,96181.31
2023-02-11T19:53:58.439Z,96182.91
2023-02-11T19:56:25.571Z,96176.00
2023-02-11T19:58:52.535Z,96173.19
2023-02-11T20:01:21.952Z,96169.50
2023-02-11T20:03:50.281Z,96176.13
2023-02-11T20:06:20.283Z,96166.63
2023-02-11T20:08:47.124Z,96160.16
2023-02-11T20:11:17.481Z,96178.44
2023-02-11T20:13:44.522Z,96162.34
2023-02-11T20:16:19.833Z,96160.63
2023-02-11T20:18:48.302Z,96152.63
2023-02-11T20:21:17.767Z,96165.03
2023-02-11T20:23:46.650Z,96171.78
2023-02-11T20:26:16.367Z,96167.56
2023-02-11T20:28:43.800Z,96163.44
2023-02-11T20:31:12.074Z,96152.75
2023-02-11T20:33:40.165Z,96160.16
2023-02-11T20:36:10.672Z,96153.72
2023-02-11T20:38:37.972Z,96149.59
2023-02-11T20:41:09.786Z,96146.47
2023-02-11T20:43:38.059Z,96128.16
2023-02-11T20:46:06.223Z,96139.88
2023-02-11T20:48:34.263Z,96140.88
2023-02-11T20:51:10.415Z,96132.88
2023-02-11T20:53:39.037Z,96138.88
2023-02-11T20:56:08.709Z,96129.28
2023-02-11T20:58:37.138Z,96136.84
2023-02-11T21:01:14.203Z,96124.44
2023-02-11T21:03:44.027Z,96121.44
2023-02-11T21:06:11.715Z,96114.53
2023-02-11T21:08:38.725Z,96114.53
2023-02-11T21:11:09.037Z,96108.84
2023-02-11T21:13:37.584Z,96096.34
2023-02-11T21:16:05.391Z,96095.19
2023-02-11T21:18:32.572Z,96084.38
2023-02-11T21:20:59.517Z,96084.25
2023-02-11T21:23:26.742Z,96076.59
2023-02-11T21:25:54.533Z,96072.41
2023-02-11T21:28:26.565Z,96071.00
2023-02-11T21:30:55.229Z,96073.28
2023-02-11T21:33:23.560Z,96072.81
2023-02-11T21:35:56.032Z,96063.34
2023-02-11T21:38:23.790Z,96063.41
2023-02-11T21:40:51.273Z,96062.50
2023-02-11T21:43:18.932Z,96068.97
2023-02-11T21:45:48.104Z,96072.53
2023-02-11T21:48:16.648Z,96073.38
2023-02-11T21:50:46.608Z,96064.16
2023-02-11T21:53:14.259Z,96065.13
2023-02-11T21:55:41.773Z,96065.88
2023-02-11T21:58:09.666Z,96071.03
2023-02-11T22:00:36.734Z,96077.03
2023-02-11T22:03:03.778Z,96061.31
2023-02-11T22:05:30.756Z,96070.34
2023-02-11T22:07:57.832Z,96042.19
2023-02-11T22:10:25.089Z,96064.75
2023-02-11T22:12:51.927Z,96076.28
2023-02-11T22:15:18.851Z,96081.66
2023-02-11T22:17:45.772Z,96086.91
2023-02-11T22:20:12.839Z,96086.00
2023-02-11T22:22:39.764Z,96089.50
2023-02-11T22:25:07.107Z,96100.59
2023-02-11T22:27:34.002Z,96088.44
2023-02-11T22:30:00.955Z,96096.41
2023-02-11T22:32:27.892Z,96094.63
2023-02-11T22:34:55.666Z,96091.44
2023-02-11T22:37:22.619Z,96081.56
2023-02-11T22:39:49.465Z,96094.13
2023-02-11T22:42:16.334Z,96091.69
2023-02-11T22:44:43.126Z,96086.25
2023-02-11T22:47:10.186Z,96098.63
2023-02-11T22:49:37.124Z,96088.59
2023-02-11T22:52:04.522Z,96082.88
2023-02-11T22:54:31.961Z,96075.09
2023-02-11T22:56:58.849Z,96091.88
2023-02-11T22:59:25.714Z,96088.44
2023-02-11T23:01:52.751Z,96098.38
2023-02-11T23:04:19.775Z,96096.97
2023-02-11T23:06:47.925Z,96104.41
2023-02-11T23:09:15.068Z,96098.31
2023-02-11T23:11:42.068Z,96101.63
2023-02-11T23:14:12.216Z,96083.88
2023-02-11T23:16:39.536Z,96075.44
2023-02-11T23:19:08.907Z,96074.66
2023-02-11T23:21:39.069Z,96074.84
2023-02-11T23:24:15.715Z,96071.66
2023-02-11T23:26:43.771Z,96073.66
2023-02-11T23:29:11.646Z,96068.63
2023-02-11T23:31:40.879Z,96055.16
2023-02-11T23:34:08.905Z,96065.34
2023-02-11T23:36:36.279Z,96054.63
2023-02-11T23:39:03.591Z,96055.47
2023-02-11T23:41:31.262Z,96050.50
2023-02-11T23:43:59.478Z,96058.63
2023-02-11T23:46:27.286Z,96044.59
2023-02-11T23:48:54.248Z,96050.47
2023-02-11T23:51:22.247Z,96050.03
2023-02-11T23:53:49.830Z,96047.97
2023-02-11T23:56:19.594Z,96054.94
2023-02-11T23:58:52.915Z,96045.28
